Terminal Aerodrome Forecast
Issued by NWS

Home | Current Version | Previous Version | Graphics & Text | Print | Product List | Glossary On
Versions: 1 2 3 4 5 6 7 8 9 10 11 12 13 14 15 16 17 18 19 20 21
000
FTUS43 KICT 240305 AAA
TAFSLN
TAF AMD
KSLN 240305Z 2403/2424 07009KT P6SM VCTS OVC050CB
     FM240700 10013KT P6SM VCSH OVC013
     FM240900 10017KT P6SM VCSH OVC008
     FM241200 08013KT 3SM RA BR OVC005
     FM241700 33013KT P6SM OVC008=

USA.gov is the U.S. government's official web portal to all federal, state and local government web resources and services.